Wetterdaten: Woche 10.10.16 - 16.10.16 (KW41)
Datum Zeit Temp. Aussen Temp. o. S. +5cm Feuchte Auss BlattFeu 1 Luftdruck Regen Sonnenschein Regendauer Solar Windben Empfang
10.10.2016 00:00 7,7 C 7,5 C 6,4 C 87 % 1 lf 1024,5 hPa 0,0 l/m 0,00 h 0,00 h 0 W/m 2,5 km/h (1 Bft) 93,30 %
10.10.2016 01:00 7,6 C 7,6 C 6,5 C 87 % 0 lf 1024,3 hPa 0,0 l/m 0,00 h 0,00 h 0 W/m 2,9 km/h (1 Bft) 96,45 %
10.10.2016 02:00 7,5 C 7,2 C 6,3 C 88 % 0 lf 1024,2 hPa 0,0 l/m 0,00 h 0,00 h 0 W/m 0,0 km/h (0 Bft) 96,66 %
10.10.2016 03:00 7,5 C 7,4 C 6,5 C 88 % 0 lf 1024,1 hPa 0,0 l/m 0,00 h 0,00 h 0 W/m 2,4 km/h (1 Bft) 95,59 %
10.10.2016 04:00 7,6 C 7,6 C 6,5 C 88 % 6 lf 1023,9 hPa 0,2 l/m 0,00 h 0,37 h 0 W/m 1,4 km/h (1 Bft) 97,42 %
10.10.2016 05:00 7,5 C 6,7 C 5,5 C 89 % 15 lf 1023,6 hPa 0,0 l/m 0,00 h 0,17 h 0 W/m 3,8 km/h (1 Bft) 94,95 %
10.10.2016 06:00 7,2 C 6,7 C 5,6 C 90 % 14 lf 1023,4 hPa 0,0 l/m 0,00 h 0,00 h 0 W/m 1,7 km/h (1 Bft) 95,80 %
10.10.2016 07:00 7,1 C 6,7 C 5,6 C 90 % 2 lf 1023,4 hPa 0,0 l/m 0,00 h 0,00 h 3 W/m 0,0 km/h (0 Bft) 97,22 %
10.10.2016 08:00 7,1 C 7,3 C 6,0 C 91 % 1 lf 1023,6 hPa 0,0 l/m 0,10 h 0,00 h 38 W/m 1,3 km/h (1 Bft) 97,65 %
10.10.2016 09:00 7,8 C 9,8 C 8,2 C 91 % 0 lf 1023,6 hPa 0,0 l/m 0,57 h 0,00 h 123 W/m 1,5 km/h (1 Bft) 95,02 %
10.10.2016 10:00 9,0 C 13,8 C 10,9 C 89 % 0 lf 1023,7 hPa 0,0 l/m 0,77 h 0,00 h 288 W/m 2,8 km/h (1 Bft) 96,73 %
10.10.2016 11:00 11,2 C 17,5 C 12,8 C 82 % 0 lf 1023,6 hPa 0,0 l/m 1,00 h 0,00 h 368 W/m 6,9 km/h (2 Bft) 95,80 %
10.10.2016 12:00 12,1 C 15,9 C 13,0 C 77 % 0 lf 1023,3 hPa 0,0 l/m 0,70 h 0,00 h 309 W/m 6,7 km/h (2 Bft) 95,78 %
10.10.2016 13:00 13,5 C 20,9 C 14,1 C 72 % 0 lf 1022,7 hPa 0,0 l/m 1,00 h 0,00 h 653 W/m 9,7 km/h (2 Bft) 97,65 %
10.10.2016 14:00 12,7 C 12,8 C 10,0 C 77 % 12 lf 1022,2 hPa 2,2 l/m 0,20 h 0,70 h 131 W/m 13,1 km/h (3 Bft) 95,73 %
10.10.2016 15:00 10,9 C 10,4 C 9,3 C 88 % 15 lf 1021,9 hPa 0,0 l/m 0,03 h 0,10 h 74 W/m 3,8 km/h (1 Bft) 94,94 %
10.10.2016 16:00 10,7 C 10,6 C 10,1 C 91 % 15 lf 1021,7 hPa 0,0 l/m 0,00 h 0,00 h 91 W/m 5,8 km/h (2 Bft) 96,72 %
10.10.2016 17:00 10,3 C 10,0 C 9,2 C 90 % 5 lf 1021,5 hPa 0,0 l/m 0,00 h 0,00 h 43 W/m 4,8 km/h (1 Bft) 96,80 %
10.10.2016 18:00 10,1 C 9,9 C 8,6 C 90 % 1 lf 1021,5 hPa 0,0 l/m 0,03 h 0,00 h 20 W/m 5,7 km/h (1 Bft) 95,38 %
10.10.2016 19:00 9,6 C 8,6 C 7,5 C 89 % 2 lf 1021,7 hPa 0,0 l/m 0,00 h 0,00 h 4 W/m 2,6 km/h (1 Bft) 96,10 %
10.10.2016 20:00 8,9 C 8,7 C 7,2 C 87 % 0 lf 1021,9 hPa 0,0 l/m 0,00 h 0,00 h 4 W/m 9,3 km/h (2 Bft) 95,62 %
10.10.2016 21:00 8,4 C 7,2 C 5,6 C 82 % 0 lf 1021,9 hPa 0,0 l/m 0,00 h 0,00 h 2 W/m 6,2 km/h (2 Bft) 95,74 %
10.10.2016 22:00 7,2 C 6,0 C 4,6 C 84 % 1 lf 1021,8 hPa 0,0 l/m 0,00 h 0,00 h 2 W/m 1,5 km/h (1 Bft) 96,85 %
10.10.2016 23:00 6,8 C 6,4 C 5,2 C 87 % 0 lf 1021,7 hPa 0,0 l/m 0,00 h 0,00 h 0 W/m 7,5 km/h (2 Bft) 97,56 %
11.10.2016 00:00 6,4 C 4,9 C 3,6 C 87 % 2 lf 1021,6 hPa 0,0 l/m 0,00 h 0,00 h 0 W/m 4,3 km/h (1 Bft) 94,08 %
11.10.2016 01:00 5,3 C 3,4 C 2,5 C 88 % 8 lf 1021,6 hPa 0,0 l/m 0,00 h 0,00 h 0 W/m 0,6 km/h (0 Bft) 94,48 %
11.10.2016 02:00 4,4 C 2,6 C 1,9 C 90 % 15 lf 1021,4 hPa 0,0 l/m 0,00 h 0,00 h 0 W/m 0,0 km/h (0 Bft) 97,45 %
11.10.2016 03:00 3,7 C 2,2 C 1,5 C 91 % 15 lf 1021,2 hPa 0,0 l/m 0,00 h 0,00 h 0 W/m 0,7 km/h (0 Bft) 95,28 %
11.10.2016 04:00 3,2 C 1,8 C 1,1 C 92 % 15 lf 1021,0 hPa 0,0 l/m 0,00 h 0,00 h 0 W/m 0,0 km/h (0 Bft) 96,71 %
11.10.2016 05:00 2,8 C 1,6 C 1,1 C 92 % 15 lf 1020,9 hPa 0,0 l/m 0,00 h 0,00 h 0 W/m 0,0 km/h (0 Bft) 95,87 %
11.10.2016 06:00 2,4 C 1,2 C 0,8 C 93 % 15 lf 1020,9 hPa 0,0 l/m 0,00 h 0,00 h 0 W/m 0,0 km/h (0 Bft) 96,03 %
11.10.2016 07:00 2,0 C 1,4 C 0,8 C 93 % 15 lf 1020,9 hPa 0,0 l/m 0,00 h 0,00 h 6 W/m 0,1 km/h (0 Bft) 97,05 %
11.10.2016 08:00 2,1 C 2,6 C 1,8 C 94 % 15 lf 1021,0 hPa 0,0 l/m 0,00 h 0,00 h 31 W/m 1,8 km/h (1 Bft) 95,62 %
11.10.2016 09:00 3,5 C 4,9 C 3,8 C 95 % 15 lf 1021,2 hPa 0,0 l/m 0,20 h 0,00 h 102 W/m 4,6 km/h (1 Bft) 98,17 %
11.10.2016 10:00 5,1 C 6,4 C 5,7 C 97 % 15 lf 1021,3 hPa 0,0 l/m 0,00 h 0,00 h 129 W/m 2,0 km/h (1 Bft) 93,23 %
11.10.2016 11:00 6,8 C 12,3 C 9,2 C 97 % 6 lf 1021,3 hPa 0,0 l/m 0,83 h 0,00 h 315 W/m 3,2 km/h (1 Bft) 97,11 %
11.10.2016 12:00 9,7 C 20,1 C 12,7 C 97 % 0 lf 1021,1 hPa 0,0 l/m 0,97 h 0,00 h 513 W/m 6,9 km/h (2 Bft) 96,33 %
11.10.2016 13:00 12,0 C 19,2 C 12,7 C 77 % 0 lf 1020,7 hPa 0,0 l/m 1,00 h 0,00 h 452 W/m 13,9 km/h (3 Bft) 94,99 %
11.10.2016 14:00 12,5 C 20,2 C 12,0 C 71 % 0 lf 1020,3 hPa 0,0 l/m 1,00 h 0,00 h 464 W/m 14,8 km/h (3 Bft) 97,37 %
11.10.2016 15:00 12,8 C 19,1 C 11,9 C 71 % 0 lf 1019,9 hPa 0,0 l/m 0,83 h 0,00 h 339 W/m 16,4 km/h (3 Bft) 95,60 %
11.10.2016 16:00 12,5 C 15,3 C 11,9 C 73 % 0 lf 1019,8 hPa 0,0 l/m 0,53 h 0,00 h 192 W/m 14,8 km/h (3 Bft) 96,94 %
11.10.2016 17:00 11,4 C 11,2 C 9,7 C 79 % 0 lf 1019,7 hPa 0,0 l/m 0,00 h 0,00 h 48 W/m 13,0 km/h (3 Bft) 95,80 %
11.10.2016 18:00 10,5 C 10,4 C 9,0 C 85 % 0 lf 1019,7 hPa 0,0 l/m 0,00 h 0,00 h 19 W/m 10,8 km/h (2 Bft) 96,58 %
11.10.2016 19:00 10,0 C 9,9 C 8,6 C 87 % 0 lf 1019,8 hPa 0,0 l/m 0,00 h 0,00 h 0 W/m 9,6 km/h (2 Bft) 94,94 %
11.10.2016 20:00 9,7 C 9,4 C 8,3 C 89 % 0 lf 1019,8 hPa 0,0 l/m 0,00 h 0,00 h 0 W/m 6,7 km/h (2 Bft) 96,27 %
11.10.2016 21:00 9,5 C 9,4 C 8,3 C 90 % 0 lf 1019,8 hPa 0,0 l/m 0,00 h 0,00 h 0 W/m 7,6 km/h (2 Bft) 95,94 %
11.10.2016 22:00 9,3 C 8,6 C 7,2 C 91 % 1 lf 1019,8 hPa 0,0 l/m 0,00 h 0,00 h 0 W/m 5,5 km/h (1 Bft) 97,30 %
11.10.2016 23:00 8,3 C 7,0 C 5,7 C 90 % 5 lf 1019,6 hPa 0,0 l/m 0,00 h 0,00 h 0 W/m 3,8 km/h (1 Bft) 94,72 %
12.10.2016 00:00 8,1 C 7,9 C 7,1 C 93 % 3 lf 1019,5 hPa 0,0 l/m 0,00 h 0,13 h 0 W/m 2,5 km/h (1 Bft) 96,08 %
12.10.2016 01:00 8,3 C 8,0 C 7,2 C 94 % 15 lf 1019,2 hPa 0,4 l/m 0,00 h 0,90 h 0 W/m 4,2 km/h (1 Bft) 96,38 %
12.10.2016 02:00 8,4 C 8,2 C 7,2 C 94 % 15 lf 1019,0 hPa 0,2 l/m 0,00 h 0,40 h 0 W/m 4,7 km/h (1 Bft) 97,66 %
12.10.2016 03:00 8,6 C 8,4 C 7,6 C 95 % 15 lf 1018,7 hPa 1,2 l/m 0,00 h 1,00 h 0 W/m 4,6 km/h (1 Bft) 95,03 %
12.10.2016 04:00 8,9 C 8,9 C 7,8 C 96 % 15 lf 1018,5 hPa 0,6 l/m 0,00 h 0,97 h 0 W/m 10,5 km/h (2 Bft) 95,35 %
12.10.2016 05:00 8,7 C 8,3 C 7,3 C 97 % 15 lf 1018,2 hPa 0,2 l/m 0,00 h 0,17 h 0 W/m 11,9 km/h (2 Bft) 98,93 %
12.10.2016 06:00 8,6 C 8,3 C 7,2 C 97 % 15 lf 1018,2 hPa 0,0 l/m 0,00 h 0,40 h 0 W/m 14,2 km/h (3 Bft) 95,17 %
12.10.2016 07:00 8,4 C 8,1 C 7,0 C 97 % 15 lf 1018,4 hPa 0,0 l/m 0,00 h 0,10 h 0 W/m 17,2 km/h (3 Bft) 95,37 %
12.10.2016 08:00 8,0 C 7,9 C 7,0 C 97 % 15 lf 1018,6 hPa 0,0 l/m 0,00 h 0,03 h 13 W/m 16,6 km/h (3 Bft) 96,71 %
12.10.2016 09:00 8,1 C 8,4 C 7,7 C 97 % 14 lf 1019,1 hPa 0,0 l/m 0,00 h 0,07 h 59 W/m 19,7 km/h (3 Bft) 95,40 %
12.10.2016 10:00 8,3 C 8,5 C 7,9 C 95 % 1 lf 1019,4 hPa 0,0 l/m 0,00 h 0,00 h 68 W/m 19,9 km/h (4 Bft) 97,27 %
12.10.2016 11:00 8,8 C 9,5 C 8,8 C 93 % 0 lf 1019,5 hPa 0,0 l/m 0,00 h 0,00 h 131 W/m 20,9 km/h (4 Bft) 96,98 %
12.10.2016 12:00 9,2 C 10,1 C 9,2 C 90 % 0 lf 1019,4 hPa 0,0 l/m 0,00 h 0,00 h 114 W/m 20,9 km/h (4 Bft) 93,06 %
12.10.2016 13:00 9,3 C 10,0 C 8,9 C 87 % 0 lf 1019,4 hPa 0,0 l/m 0,00 h 0,00 h 73 W/m 18,7 km/h (3 Bft) 98,29 %
12.10.2016 14:00 9,3 C 10,2 C 9,0 C 86 % 0 lf 1019,1 hPa 0,0 l/m 0,00 h 0,00 h 89 W/m 20,2 km/h (4 Bft) 98,15 %
12.10.2016 15:00 9,8 C 10,8 C 9,7 C 84 % 0 lf 1018,8 hPa 0,0 l/m 0,00 h 0,00 h 108 W/m 21,0 km/h (4 Bft) 93,10 %
12.10.2016 16:00 9,8 C 10,5 C 9,4 C 82 % 0 lf 1018,6 hPa 0,0 l/m 0,00 h 0,00 h 72 W/m 19,9 km/h (4 Bft) 97,50 %
12.10.2016 17:00 9,8 C 10,0 C 8,8 C 82 % 0 lf 1018,4 hPa 0,0 l/m 0,00 h 0,00 h 28 W/m 18,0 km/h (3 Bft) 97,43 %
12.10.2016 18:00 9,4 C 9,4 C 8,1 C 82 % 0 lf 1018,5 hPa 0,0 l/m 0,00 h 0,00 h 8 W/m 16,9 km/h (3 Bft) 95,46 %
12.10.2016 19:00 9,0 C 8,9 C 7,8 C 84 % 0 lf 1018,8 hPa 0,0 l/m 0,00 h 0,00 h 0 W/m 17,5 km/h (3 Bft) 96,48 %
12.10.2016 20:00 8,8 C 8,9 C 7,7 C 85 % 0 lf 1018,9 hPa 0,0 l/m 0,00 h 0,00 h 0 W/m 15,0 km/h (3 Bft) 96,99 %
12.10.2016 21:00 8,5 C 8,3 C 7,2 C 86 % 0 lf 1018,7 hPa 0,0 l/m 0,00 h 0,00 h 0 W/m 16,5 km/h (3 Bft) 94,73 %
12.10.2016 22:00 8,2 C 8,1 C 6,7 C 88 % 0 lf 1018,7 hPa 0,0 l/m 0,00 h 0,00 h 0 W/m 11,8 km/h (2 Bft) 98,79 %
12.10.2016 23:00 8,0 C 8,3 C 7,0 C 89 % 0 lf 1018,8 hPa 0,0 l/m 0,00 h 0,00 h 0 W/m 13,1 km/h (3 Bft) 94,31 %
13.10.2016 00:00 7,9 C 7,9 C 6,7 C 89 % 0 lf 1018,7 hPa 0,0 l/m 0,00 h 0,00 h 0 W/m 13,0 km/h (3 Bft) 95,66 %
13.10.2016 01:00 7,8 C 7,8 C 6,7 C 90 % 0 lf 1018,3 hPa 0,0 l/m 0,00 h 0,00 h 0 W/m 10,9 km/h (2 Bft) 98,08 %
13.10.2016 02:00 7,7 C 7,6 C 6,5 C 91 % 0 lf 1018,3 hPa 0,0 l/m 0,00 h 0,00 h 0 W/m 9,9 km/h (2 Bft) 96,27 %
13.10.2016 03:00 7,2 C 6,0 C 4,5 C 90 % 1 lf 1018,1 hPa 0,0 l/m 0,00 h 0,00 h 0 W/m 3,0 km/h (1 Bft) 94,00 %
13.10.2016 04:00 6,5 C 6,1 C 4,7 C 91 % 1 lf 1017,8 hPa 0,0 l/m 0,00 h 0,00 h 0 W/m 7,2 km/h (2 Bft) 96,21 %
13.10.2016 05:00 6,4 C 6,1 C 4,4 C 92 % 1 lf 1017,4 hPa 0,0 l/m 0,00 h 0,00 h 0 W/m 13,2 km/h (3 Bft) 97,16 %
13.10.2016 06:00 6,0 C 6,0 C 4,3 C 93 % 2 lf 1017,1 hPa 0,0 l/m 0,00 h 0,00 h 0 W/m 16,1 km/h (3 Bft) 95,90 %
13.10.2016 07:00 5,9 C 6,0 C 4,4 C 94 % 1 lf 1016,9 hPa 0,0 l/m 0,00 h 0,00 h 5 W/m 15,7 km/h (3 Bft) 96,18 %
13.10.2016 08:00 5,8 C 6,1 C 4,4 C 94 % 1 lf 1016,9 hPa 0,0 l/m 0,67 h 0,00 h 41 W/m 13,9 km/h (3 Bft) 95,12 %
13.10.2016 09:00 6,4 C 9,9 C 6,0 C 95 % 0 lf 1016,9 hPa 0,0 l/m 0,93 h 0,00 h 167 W/m 16,0 km/h (3 Bft) 96,66 %
13.10.2016 10:00 8,9 C 13,6 C 9,0 C 86 % 0 lf 1016,7 hPa 0,0 l/m 1,00 h 0,00 h 274 W/m 21,7 km/h (4 Bft) 95,44 %
13.10.2016 11:00 10,2 C 11,8 C 9,6 C 75 % 0 lf 1016,3 hPa 0,2 l/m 0,17 h 0,00 h 174 W/m 31,7 km/h (5 Bft) 95,72 %
13.10.2016 12:00 10,5 C 12,9 C 10,7 C 72 % 0 lf 1015,5 hPa 0,0 l/m 0,60 h 0,00 h 282 W/m 31,8 km/h (5 Bft) 97,51 %
13.10.2016 13:00 12,4 C 16,8 C 11,6 C 67 % 0 lf 1014,7 hPa 0,0 l/m 0,90 h 0,00 h 451 W/m 28,7 km/h (4 Bft) 95,00 %
13.10.2016 14:00 13,1 C 16,1 C 12,8 C 65 % 0 lf 1014,1 hPa 0,0 l/m 1,00 h 0,00 h 358 W/m 28,3 km/h (4 Bft) 95,27 %
13.10.2016 15:00 13,1 C 14,1 C 12,5 C 65 % 0 lf 1013,5 hPa 0,0 l/m 0,30 h 0,00 h 196 W/m 30,9 km/h (5 Bft) 97,64 %
13.10.2016 16:00 12,5 C 13,4 C 12,0 C 67 % 0 lf 1013,0 hPa 0,0 l/m 0,40 h 0,00 h 140 W/m 27,5 km/h (4 Bft) 97,37 %
13.10.2016 17:00 12,0 C 12,1 C 10,9 C 69 % 0 lf 1012,7 hPa 0,0 l/m 0,00 h 0,00 h 51 W/m 29,8 km/h (5 Bft) 92,77 %
13.10.2016 18:00 11,2 C 11,2 C 9,8 C 73 % 0 lf 1012,7 hPa 0,0 l/m 0,00 h 0,00 h 10 W/m 22,9 km/h (4 Bft) 97,80 %
13.10.2016 19:00 10,6 C 10,5 C 9,0 C 77 % 0 lf 1012,6 hPa 0,0 l/m 0,00 h 0,00 h 0 W/m 18,5 km/h (3 Bft) 96,33 %
13.10.2016 20:00 10,0 C 10,0 C 8,4 C 80 % 0 lf 1012,3 hPa 0,0 l/m 0,00 h 0,00 h 0 W/m 16,6 km/h (3 Bft) 95,84 %
13.10.2016 21:00 9,3 C 8,9 C 7,4 C 81 % 0 lf 1012,1 hPa 0,0 l/m 0,00 h 0,00 h 0 W/m 19,2 km/h (3 Bft) 95,60 %
13.10.2016 22:00 8,4 C 8,3 C 6,7 C 85 % 0 lf 1011,8 hPa 0,0 l/m 0,00 h 0,00 h 0 W/m 21,3 km/h (4 Bft) 96,15 %
13.10.2016 23:00 8,1 C 8,1 C 6,7 C 87 % 0 lf 1011,3 hPa 0,0 l/m 0,00 h 0,00 h 0 W/m 20,3 km/h (4 Bft) 95,74 %
14.10.2016 00:00 7,9 C 7,8 C 6,7 C 88 % 0 lf 1010,9 hPa 0,0 l/m 0,00 h 0,00 h 0 W/m 18,3 km/h (3 Bft) 98,27 %
14.10.2016 01:00 7,7 C 7,8 C 6,7 C 88 % 0 lf 1010,7 hPa 0,0 l/m 0,00 h 0,00 h 0 W/m 14,8 km/h (3 Bft) 93,63 %
14.10.2016 02:00 7,5 C 7,3 C 5,9 C 88 % 0 lf 1010,5 hPa 0,0 l/m 0,00 h 0,00 h 0 W/m 14,3 km/h (3 Bft) 96,88 %
14.10.2016 03:00 7,2 C 7,2 C 6,0 C 89 % 0 lf 1010,1 hPa 0,0 l/m 0,00 h 0,00 h 0 W/m 15,8 km/h (3 Bft) 96,44 %
14.10.2016 04:00 7,2 C 7,2 C 6,1 C 89 % 0 lf 1009,6 hPa 0,0 l/m 0,00 h 0,00 h 0 W/m 17,7 km/h (3 Bft) 96,19 %
14.10.2016 05:00 7,2 C 7,2 C 5,9 C 89 % 0 lf 1008,8 hPa 0,0 l/m 0,00 h 0,00 h 0 W/m 19,9 km/h (4 Bft) 94,71 %
14.10.2016 06:00 6,9 C 7,0 C 5,6 C 89 % 0 lf 1008,2 hPa 0,0 l/m 0,00 h 0,00 h 0 W/m 18,2 km/h (3 Bft) 97,18 %
14.10.2016 07:00 6,8 C 6,9 C 5,6 C 90 % 0 lf 1008,2 hPa 0,0 l/m 0,00 h 0,00 h 4 W/m 17,1 km/h (3 Bft) 96,03 %
14.10.2016 08:00 6,9 C 7,4 C 5,9 C 90 % 0 lf 1008,3 hPa 0,0 l/m 0,00 h 0,00 h 29 W/m 16,0 km/h (3 Bft) 96,57 %
14.10.2016 09:00 7,3 C 8,8 C 7,1 C 90 % 0 lf 1008,1 hPa 0,0 l/m 0,23 h 0,00 h 103 W/m 14,6 km/h (3 Bft) 94,84 %
14.10.2016 10:00 8,6 C 10,8 C 8,7 C 85 % 0 lf 1007,8 hPa 0,0 l/m 0,30 h 0,00 h 142 W/m 18,3 km/h (3 Bft) 96,83 %
14.10.2016 11:00 9,7 C 11,2 C 10,4 C 79 % 0 lf 1007,5 hPa 0,0 l/m 0,00 h 0,00 h 167 W/m 22,5 km/h (4 Bft) 97,12 %
14.10.2016 12:00 10,9 C 12,9 C 12,1 C 77 % 0 lf 1007,3 hPa 0,0 l/m 0,17 h 0,00 h 216 W/m 18,4 km/h (3 Bft) 95,73 %
14.10.2016 13:00 12,1 C 13,6 C 13,0 C 74 % 0 lf 1006,9 hPa 0,0 l/m 0,20 h 0,10 h 205 W/m 18,3 km/h (3 Bft) 95,66 %
14.10.2016 14:00 12,8 C 14,6 C 13,8 C 71 % 0 lf 1006,3 hPa 0,0 l/m 0,50 h 0,00 h 236 W/m 20,0 km/h (4 Bft) 98,43 %
14.10.2016 15:00 13,5 C 15,9 C 13,8 C 69 % 0 lf 1006,0 hPa 0,0 l/m 0,70 h 0,00 h 263 W/m 20,1 km/h (4 Bft) 95,91 %
14.10.2016 16:00 13,6 C 15,0 C 13,0 C 71 % 0 lf 1005,5 hPa 0,0 l/m 0,60 h 0,00 h 159 W/m 16,1 km/h (3 Bft) 94,67 %
14.10.2016 17:00 13,7 C 14,0 C 12,6 C 72 % 0 lf 1005,1 hPa 0,0 l/m 0,00 h 0,00 h 56 W/m 12,1 km/h (2 Bft) 97,44 %
14.10.2016 18:00 13,3 C 12,8 C 10,9 C 75 % 1 lf 1005,1 hPa 0,0 l/m 0,00 h 0,33 h 11 W/m 4,0 km/h (1 Bft) 96,58 %
14.10.2016 19:00 12,6 C 11,7 C 9,5 C 80 % 2 lf 1004,9 hPa 0,0 l/m 0,00 h 0,13 h 0 W/m 5,5 km/h (1 Bft) 93,81 %
14.10.2016 20:00 12,0 C 12,2 C 10,2 C 83 % 0 lf 1004,6 hPa 0,0 l/m 0,00 h 0,00 h 0 W/m 9,1 km/h (2 Bft) 97,65 %
14.10.2016 21:00 12,1 C 11,9 C 10,3 C 83 % 2 lf 1004,8 hPa 0,0 l/m 0,00 h 0,50 h 0 W/m 11,7 km/h (2 Bft) 95,52 %
14.10.2016 22:00 11,8 C 10,7 C 9,2 C 86 % 10 lf 1005,2 hPa 0,6 l/m 0,00 h 0,83 h 0 W/m 6,4 km/h (2 Bft) 97,09 %
14.10.2016 23:00 11,3 C 10,0 C 8,9 C 90 % 15 lf 1004,7 hPa 0,8 l/m 0,00 h 1,00 h 0 W/m 6,6 km/h (2 Bft) 96,43 %
15.10.2016 00:00 10,7 C 10,0 C 8,9 C 92 % 15 lf 1004,0 hPa 0,4 l/m 0,00 h 0,67 h 0 W/m 5,3 km/h (1 Bft) 94,51 %
15.10.2016 01:00 10,4 C 10,0 C 8,9 C 93 % 15 lf 1003,8 hPa 0,2 l/m 0,00 h 0,33 h 0 W/m 4,2 km/h (1 Bft) 97,49 %
15.10.2016 02:00 10,2 C 9,9 C 8,6 C 95 % 15 lf 1003,6 hPa 0,0 l/m 0,00 h 0,03 h 0 W/m 6,5 km/h (2 Bft) 97,73 %
15.10.2016 03:00 9,9 C 9,4 C 8,2 C 95 % 15 lf 1003,6 hPa 0,0 l/m 0,00 h 0,00 h 0 W/m 8,6 km/h (2 Bft) 94,86 %
15.10.2016 04:00 9,6 C 9,4 C 7,9 C 96 % 15 lf 1003,6 hPa 0,0 l/m 0,00 h 0,00 h 0 W/m 8,1 km/h (2 Bft) 96,07 %
15.10.2016 05:00 9,5 C 9,4 C 8,1 C 96 % 15 lf 1003,9 hPa 0,0 l/m 0,00 h 0,00 h 0 W/m 7,3 km/h (2 Bft) 97,72 %
15.10.2016 06:00 9,7 C 9,7 C 8,6 C 97 % 15 lf 1004,5 hPa 0,4 l/m 0,00 h 0,60 h 0 W/m 8,6 km/h (2 Bft) 95,58 %
15.10.2016 07:00 9,9 C 10,0 C 8,9 C 97 % 15 lf 1005,2 hPa 0,8 l/m 0,00 h 0,63 h 0 W/m 8,3 km/h (2 Bft) 96,22 %
15.10.2016 08:00 10,0 C 10,0 C 8,9 C 97 % 15 lf 1006,0 hPa 0,0 l/m 0,00 h 0,20 h 14 W/m 10,4 km/h (2 Bft) 95,14 %
15.10.2016 09:00 10,6 C 10,9 C 9,8 C 98 % 15 lf 1007,1 hPa 0,2 l/m 0,00 h 0,30 h 37 W/m 11,5 km/h (2 Bft) 97,15 %
15.10.2016 10:00 11,3 C 11,7 C 10,5 C 98 % 15 lf 1008,4 hPa 0,0 l/m 0,00 h 0,47 h 46 W/m 18,3 km/h (3 Bft) 96,79 %
15.10.2016 11:00 11,7 C 12,0 C 10,9 C 98 % 15 lf 1009,4 hPa 0,0 l/m 0,00 h 0,00 h 85 W/m 17,8 km/h (3 Bft) 94,87 %
15.10.2016 12:00 12,2 C 12,7 C 11,5 C 98 % 6 lf 1010,5 hPa 0,0 l/m 0,00 h 0,00 h 118 W/m 24,4 km/h (4 Bft) 95,85 %
15.10.2016 13:00 13,3 C 16,0 C 12,8 C 95 % 0 lf 1011,1 hPa 0,0 l/m 0,70 h 0,00 h 305 W/m 21,0 km/h (4 Bft) 98,58 %
15.10.2016 14:00 15,1 C 18,7 C 14,6 C 83 % 0 lf 1011,7 hPa 0,0 l/m 0,63 h 0,00 h 295 W/m 21,7 km/h (4 Bft) 95,02 %
15.10.2016 15:00 15,6 C 18,3 C 14,7 C 77 % 0 lf 1012,3 hPa 0,0 l/m 0,33 h 0,00 h 214 W/m 18,7 km/h (3 Bft) 96,09 %
15.10.2016 16:00 16,1 C 21,3 C 14,3 C 74 % 0 lf 1012,9 hPa 0,0 l/m 0,87 h 0,00 h 239 W/m 16,0 km/h (3 Bft) 97,51 %
15.10.2016 17:00 15,4 C 15,6 C 12,8 C 74 % 0 lf 1013,5 hPa 0,0 l/m 0,17 h 0,00 h 69 W/m 14,1 km/h (3 Bft) 96,51 %
15.10.2016 18:00 14,0 C 12,9 C 10,4 C 76 % 0 lf 1014,1 hPa 0,0 l/m 0,00 h 0,00 h 16 W/m 8,1 km/h (2 Bft) 93,81 %
15.10.2016 19:00 12,3 C 10,8 C 7,9 C 80 % 0 lf 1014,8 hPa 0,0 l/m 0,00 h 0,00 h 0 W/m 6,9 km/h (2 Bft) 98,03 %
15.10.2016 20:00 11,2 C 10,9 C 8,4 C 85 % 0 lf 1015,4 hPa 0,0 l/m 0,00 h 0,00 h 0 W/m 11,4 km/h (2 Bft) 95,73 %
15.10.2016 21:00 10,8 C 10,3 C 8,0 C 85 % 0 lf 1016,0 hPa 0,0 l/m 0,00 h 0,00 h 0 W/m 9,0 km/h (2 Bft) 95,78 %
15.10.2016 22:00 9,9 C 8,3 C 6,1 C 85 % 1 lf 1016,7 hPa 0,0 l/m 0,00 h 0,00 h 0 W/m 3,8 km/h (1 Bft) 95,81 %
15.10.2016 23:00 8,5 C 7,7 C 5,6 C 89 % 3 lf 1017,0 hPa 0,0 l/m 0,00 h 0,00 h 0 W/m 5,9 km/h (2 Bft) 96,51 %
16.10.2016 00:00 7,7 C 7,1 C 5,3 C 92 % 4 lf 1017,2 hPa 0,0 l/m 0,00 h 0,00 h 0 W/m 5,2 km/h (1 Bft) 95,91 %
16.10.2016 01:00 7,0 C 6,8 C 4,8 C 93 % 11 lf 1017,5 hPa 0,0 l/m 0,00 h 0,00 h 0 W/m 6,4 km/h (2 Bft) 97,51 %
16.10.2016 02:00 6,9 C 6,7 C 5,0 C 95 % 15 lf 1017,9 hPa 0,0 l/m 0,00 h 0,00 h 0 W/m 7,4 km/h (2 Bft) 94,59 %
16.10.2016 03:00 6,7 C 6,7 C 5,0 C 95 % 15 lf 1018,0 hPa 0,0 l/m 0,00 h 0,00 h 0 W/m 8,1 km/h (2 Bft) 97,01 %
16.10.2016 04:00 6,7 C 6,7 C 5,0 C 96 % 15 lf 1018,1 hPa 0,0 l/m 0,00 h 0,00 h 0 W/m 9,3 km/h (2 Bft) 96,00 %
16.10.2016 05:00 6,7 C 6,9 C 5,2 C 96 % 15 lf 1018,2 hPa 0,0 l/m 0,00 h 0,00 h 0 W/m 10,8 km/h (2 Bft) 97,80 %
16.10.2016 06:00 7,2 C 7,4 C 5,9 C 97 % 15 lf 1018,2 hPa 0,0 l/m 0,00 h 0,00 h 0 W/m 12,4 km/h (3 Bft) 92,67 %
16.10.2016 07:00 7,0 C 6,8 C 5,0 C 97 % 15 lf 1018,6 hPa 0,0 l/m 0,00 h 0,00 h 5 W/m 10,5 km/h (2 Bft) 97,37 %
16.10.2016 08:00 7,2 C 7,8 C 6,3 C 97 % 15 lf 1018,7 hPa 0,2 l/m 0,73 h 0,00 h 50 W/m 15,0 km/h (3 Bft) 98,01 %
16.10.2016 09:00 8,2 C 10,9 C 7,7 C 98 % 6 lf 1018,9 hPa 0,0 l/m 0,47 h 0,00 h 124 W/m 17,2 km/h (3 Bft) 94,30 %
16.10.2016 10:00 10,6 C 17,2 C 11,1 C 97 % 0 lf 1019,2 hPa 0,0 l/m 1,00 h 0,00 h 306 W/m 15,5 km/h (3 Bft) 96,87 %
16.10.2016 11:00 13,6 C 20,1 C 11,9 C 87 % 0 lf 1019,3 hPa 0,0 l/m 1,00 h 0,00 h 405 W/m 17,6 km/h (3 Bft) 98,22 %
16.10.2016 12:00 15,6 C 21,2 C 14,9 C 79 % 0 lf 1019,2 hPa 0,0 l/m 0,97 h 0,00 h 468 W/m 21,1 km/h (4 Bft) 93,42 %
16.10.2016 13:00 17,4 C 22,9 C 15,4 C 75 % 0 lf 1018,7 hPa 0,0 l/m 1,00 h 0,00 h 479 W/m 21,3 km/h (4 Bft) 97,65 %
16.10.2016 14:00 18,4 C 22,7 C 16,2 C 70 % 0 lf 1018,5 hPa 0,0 l/m 0,83 h 0,00 h 372 W/m 22,4 km/h (4 Bft) 96,44 %
16.10.2016 15:00 19,1 C 23,9 C 17,0 C 67 % 0 lf 1018,3 hPa 0,0 l/m 0,93 h 0,00 h 348 W/m 20,4 km/h (4 Bft) 95,23 %
16.10.2016 16:00 19,4 C 22,6 C 17,0 C 66 % 0 lf 1018,0 hPa 0,0 l/m 0,73 h 0,00 h 214 W/m 17,3 km/h (3 Bft) 96,51 %
16.10.2016 17:00 18,6 C 19,5 C 15,6 C 68 % 0 lf 1018,0 hPa 0,0 l/m 0,57 h 0,00 h 93 W/m 13,5 km/h (3 Bft) 96,51 %
16.10.2016 18:00 17,5 C 16,7 C 13,4 C 71 % 0 lf 1018,0 hPa 0,0 l/m 0,33 h 0,00 h 20 W/m 11,2 km/h (2 Bft) 96,48 %
16.10.2016 19:00 16,0 C 15,0 C 11,7 C 76 % 0 lf 1018,4 hPa 0,0 l/m 0,00 h 0,00 h 0 W/m 8,4 km/h (2 Bft) 95,21 %
16.10.2016 20:00 14,6 C 13,9 C 10,5 C 80 % 0 lf 1018,6 hPa 0,0 l/m 0,00 h 0,00 h 0 W/m 8,4 km/h (2 Bft) 97,59 %
16.10.2016 21:00 13,6 C 13,0 C 10,1 C 84 % 0 lf 1018,8 hPa 0,0 l/m 0,00 h 0,00 h 0 W/m 11,4 km/h (2 Bft) 96,84 %
16.10.2016 22:00 13,0 C 12,7 C 10,5 C 88 % 0 lf 1018,9 hPa 0,0 l/m 0,00 h 0,00 h 0 W/m 13,3 km/h (3 Bft) 93,42 %
16.10.2016 23:00 12,3 C 12,0 C 9,8 C 89 % 1 lf 1018,9 hPa 0,0 l/m 0,00 h 0,00 h 0 W/m 13,1 km/h (3 Bft) 98,11 %
Min-Datum _ 11.10.16 11.10.16 11.10.16 13.10.16 10.10.16 15.10.16 - - - - 10.10.16 10.10.16
_ Min-Zeit 07:34 05:20 05:24 14:58 00:34 02:50 - - - - 00:00 06:10
Minimum _ 1,9 C 1,1 C 0,6 C 63 % 0 lf 1003,4 hPa - - - - 0,0 km/h (0 Bft) 84,78 %
Max-Datum _ 16.10.16 11.10.16 16.10.16 15.10.16 10.10.16 10.10.16 10.10.16 10.10.16 10.10.16 11.10.16 13.10.16 10.10.16
_ Max-Zeit 16:28 12:36 16:08 11:20 04:52 00:00 14:28 08:54 04:36 12:34 11:34 00:08
Maximum _ 19,7 C 26,1 C 17,8 C 99 % 15 lf 1024,6 hPa 2,2 l/m 0,03 h 0,03 h 968 W/m 46,0 km/h
O (6 Bft)
100,00 %
Durchschnitt _ 9,7 C 10,4 C 8,4 C 86 % 4 lf 1016,1 hPa #8,8 l/m #29:42 h #11:40 h 158 W/m 12,0 km/h (2 Bft) 96,17 %
© 2016 W. Hausmann